sensor_id;sensor_type;location;lat;lon;timestamp;P1;durP1;ratioP1;P2;durP2;ratioP2
11443;SDS011;5778;47.856;12.154;2022-10-16T00:01:58;2.47;;;2.27;;
11443;SDS011;5778;47.856;12.154;2022-10-16T00:04:26;2.47;;;2.27;;
11443;SDS011;5778;47.856;12.154;2022-10-16T00:07:00;2.97;;;2.60;;
11443;SDS011;5778;47.856;12.154;2022-10-16T00:09:27;2.47;;;2.07;;
11443;SDS011;5778;47.856;12.154;2022-10-16T00:11:54;2.20;;;2.10;;
11443;SDS011;5778;47.856;12.154;2022-10-16T00:14:21;2.13;;;2.03;;
11443;SDS011;5778;47.856;12.154;2022-10-16T00:16:48;2.40;;;2.00;;
11443;SDS011;5778;47.856;12.154;2022-10-16T00:19:15;2.43;;;2.03;;
11443;SDS011;5778;47.856;12.154;2022-10-16T00:21:44;4.67;;;2.23;;
11443;SDS011;5778;47.856;12.154;2022-10-16T00:24:10;2.23;;;1.90;;
11443;SDS011;5778;47.856;12.154;2022-10-16T00:26:51;3.87;;;2.10;;
11443;SDS011;5778;47.856;12.154;2022-10-16T00:29:17;2.27;;;2.07;;
11443;SDS011;5778;47.856;12.154;2022-10-16T00:31:45;3.00;;;2.00;;
11443;SDS011;5778;47.856;12.154;2022-10-16T00:34:12;2.30;;;2.20;;
11443;SDS011;5778;47.856;12.154;2022-10-16T00:36:39;2.33;;;2.13;;
11443;SDS011;5778;47.856;12.154;2022-10-16T00:39:08;2.40;;;2.20;;
11443;SDS011;5778;47.856;12.154;2022-10-16T00:41:35;4.07;;;2.73;;
11443;SDS011;5778;47.856;12.154;2022-10-16T00:44:03;3.03;;;2.60;;
11443;SDS011;5778;47.856;12.154;2022-10-16T00:46:52;3.73;;;2.70;;
11443;SDS011;5778;47.856;12.154;2022-10-16T00:49:19;3.80;;;2.80;;
11443;SDS011;5778;47.856;12.154;2022-10-16T00:52:04;5.53;;;1.97;;
11443;SDS011;5778;47.856;12.154;2022-10-16T00:54:32;1.93;;;1.80;;
11443;SDS011;5778;47.856;12.154;2022-10-16T00:57:02;2.07;;;1.97;;
11443;SDS011;5778;47.856;12.154;2022-10-16T00:59:33;2.20;;;2.10;;
11443;SDS011;5778;47.856;12.154;2022-10-16T01:02:03;2.47;;;2.33;;
11443;SDS011;5778;47.856;12.154;2022-10-16T01:04:32;3.00;;;2.47;;
11443;SDS011;5778;47.856;12.154;2022-10-16T01:07:03;2.57;;;2.33;;
11443;SDS011;5778;47.856;12.154;2022-10-16T01:09:37;2.77;;;2.50;;
11443;SDS011;5778;47.856;12.154;2022-10-16T01:12:14;3.00;;;2.60;;
11443;SDS011;5778;47.856;12.154;2022-10-16T01:14:47;3.00;;;2.30;;
11443;SDS011;5778;47.856;12.154;2022-10-16T01:17:29;3.27;;;2.10;;
11443;SDS011;5778;47.856;12.154;2022-10-16T01:20:10;4.07;;;2.07;;
11443;SDS011;5778;47.856;12.154;2022-10-16T01:22:44;3.57;;;2.23;;
11443;SDS011;5778;47.856;12.154;2022-10-16T01:25:29;4.50;;;1.97;;
11443;SDS011;5778;47.856;12.154;2022-10-16T01:28:05;3.13;;;2.00;;
11443;SDS011;5778;47.856;12.154;2022-10-16T01:30:37;3.40;;;2.23;;
11443;SDS011;5778;47.856;12.154;2022-10-16T01:33:08;2.00;;;1.80;;
11443;SDS011;5778;47.856;12.154;2022-10-16T01:35:42;1.97;;;1.83;;
11443;SDS011;5778;47.856;12.154;2022-10-16T01:38:14;2.33;;;1.80;;
11443;SDS011;5778;47.856;12.154;2022-10-16T01:40:46;2.50;;;2.07;;
11443;SDS011;5778;47.856;12.154;2022-10-16T01:43:19;1.70;;;1.60;;
11443;SDS011;5778;47.856;12.154;2022-10-16T01:46:06;1.90;;;1.80;;
11443;SDS011;5778;47.856;12.154;2022-10-16T01:48:35;2.23;;;1.73;;
11443;SDS011;5778;47.856;12.154;2022-10-16T01:54:10;1.73;;;1.63;;
11443;SDS011;5778;47.856;12.154;2022-10-16T01:56:42;1.53;;;1.43;;
11443;SDS011;5778;47.856;12.154;2022-10-16T01:59:12;1.80;;;1.70;;
11443;SDS011;5778;47.856;12.154;2022-10-16T02:01:43;1.70;;;1.60;;
11443;SDS011;5778;47.856;12.154;2022-10-16T02:04:14;1.60;;;1.50;;
11443;SDS011;5778;47.856;12.154;2022-10-16T02:06:44;1.90;;;1.60;;
11443;SDS011;5778;47.856;12.154;2022-10-16T02:09:11;1.90;;;1.80;;
11443;SDS011;5778;47.856;12.154;2022-10-16T02:11:38;4.20;;;1.90;;
11443;SDS011;5778;47.856;12.154;2022-10-16T02:14:05;2.20;;;2.00;;
11443;SDS011;5778;47.856;12.154;2022-10-16T02:16:36;2.27;;;2.07;;
11443;SDS011;5778;47.856;12.154;2022-10-16T02:19:06;1.87;;;1.73;;
11443;SDS011;5778;47.856;12.154;2022-10-16T02:24:31;2.00;;;1.90;;
11443;SDS011;5778;47.856;12.154;2022-10-16T02:27:03;1.70;;;1.60;;
11443;SDS011;5778;47.856;12.154;2022-10-16T02:29:38;1.80;;;1.70;;
11443;SDS011;5778;47.856;12.154;2022-10-16T02:32:12;3.13;;;1.70;;
11443;SDS011;5778;47.856;12.154;2022-10-16T02:34:43;4.33;;;1.90;;
11443;SDS011;5778;47.856;12.154;2022-10-16T02:37:25;3.17;;;1.80;;
11443;SDS011;5778;47.856;12.154;2022-10-16T02:39:53;3.73;;;2.10;;
11443;SDS011;5778;47.856;12.154;2022-10-16T02:42:26;2.83;;;1.83;;
11443;SDS011;5778;47.856;12.154;2022-10-16T02:44:55;1.90;;;1.80;;
11443;SDS011;5778;47.856;12.154;2022-10-16T02:47:23;1.83;;;1.73;;
11443;SDS011;5778;47.856;12.154;2022-10-16T02:49:51;4.10;;;1.90;;
11443;SDS011;5778;47.856;12.154;2022-10-16T02:55:17;7.30;;;2.20;;
11443;SDS011;5778;47.856;12.154;2022-10-16T03:00:41;1.73;;;1.60;;
11443;SDS011;5778;47.856;12.154;2022-10-16T03:03:10;1.70;;;1.60;;
11443;SDS011;5778;47.856;12.154;2022-10-16T03:05:37;3.00;;;1.90;;
11443;SDS011;5778;47.856;12.154;2022-10-16T03:08:04;1.70;;;1.60;;
11443;SDS011;5778;47.856;12.154;2022-10-16T03:10:31;3.50;;;1.83;;
11443;SDS011;5778;47.856;12.154;2022-10-16T03:12:58;2.63;;;1.87;;
11443;SDS011;5778;47.856;12.154;2022-10-16T03:15:25;2.57;;;1.80;;
11443;SDS011;5778;47.856;12.154;2022-10-16T03:21:16;1.97;;;1.80;;
11443;SDS011;5778;47.856;12.154;2022-10-16T03:23:43;2.73;;;2.27;;
11443;SDS011;5778;47.856;12.154;2022-10-16T03:26:11;1.87;;;1.77;;
11443;SDS011;5778;47.856;12.154;2022-10-16T03:28:39;3.00;;;2.03;;
11443;SDS011;5778;47.856;12.154;2022-10-16T03:31:06;2.07;;;1.97;;
11443;SDS011;5778;47.856;12.154;2022-10-16T03:33:33;2.33;;;1.93;;
11443;SDS011;5778;47.856;12.154;2022-10-16T03:36:06;1.90;;;1.80;;
11443;SDS011;5778;47.856;12.154;2022-10-16T03:38:35;1.80;;;1.70;;
11443;SDS011;5778;47.856;12.154;2022-10-16T03:41:02;2.13;;;1.40;;
11443;SDS011;5778;47.856;12.154;2022-10-16T03:43:29;1.80;;;1.47;;
11443;SDS011;5778;47.856;12.154;2022-10-16T03:46:12;2.07;;;1.97;;
11443;SDS011;5778;47.856;12.154;2022-10-16T03:48:39;1.97;;;1.87;;
11443;SDS011;5778;47.856;12.154;2022-10-16T03:51:07;2.00;;;1.67;;
11443;SDS011;5778;47.856;12.154;2022-10-16T03:53:35;1.60;;;1.50;;
11443;SDS011;5778;47.856;12.154;2022-10-16T03:56:02;3.07;;;1.83;;
11443;SDS011;5778;47.856;12.154;2022-10-16T03:58:29;2.93;;;1.97;;
11443;SDS011;5778;47.856;12.154;2022-10-16T04:00:56;1.80;;;1.70;;
11443;SDS011;5778;47.856;12.154;2022-10-16T04:03:24;3.10;;;2.37;;
11443;SDS011;5778;47.856;12.154;2022-10-16T04:06:05;1.90;;;1.80;;
11443;SDS011;5778;47.856;12.154;2022-10-16T04:08:32;1.90;;;1.80;;
11443;SDS011;5778;47.856;12.154;2022-10-16T04:11:03;2.57;;;1.80;;
11443;SDS011;5778;47.856;12.154;2022-10-16T04:13:30;1.83;;;1.73;;
11443;SDS011;5778;47.856;12.154;2022-10-16T04:15:57;2.50;;;1.93;;
11443;SDS011;5778;47.856;12.154;2022-10-16T04:18:24;2.70;;;2.10;;
11443;SDS011;5778;47.856;12.154;2022-10-16T04:20:52;2.20;;;2.00;;
11443;SDS011;5778;47.856;12.154;2022-10-16T04:23:19;2.37;;;2.00;;
11443;SDS011;5778;47.856;12.154;2022-10-16T04:25:46;3.63;;;2.20;;
11443;SDS011;5778;47.856;12.154;2022-10-16T04:28:15;2.37;;;2.17;;
11443;SDS011;5778;47.856;12.154;2022-10-16T04:30:42;2.43;;;2.00;;
11443;SDS011;5778;47.856;12.154;2022-10-16T04:33:09;2.23;;;1.67;;
11443;SDS011;5778;47.856;12.154;2022-10-16T04:35:36;4.30;;;2.07;;
11443;SDS011;5778;47.856;12.154;2022-10-16T04:38:03;2.20;;;1.80;;
11443;SDS011;5778;47.856;12.154;2022-10-16T04:40:30;2.33;;;2.10;;
11443;SDS011;5778;47.856;12.154;2022-10-16T04:43:01;3.70;;;3.10;;
11443;SDS011;5778;47.856;12.154;2022-10-16T04:45:30;15.10;;;7.10;;
11443;SDS011;5778;47.856;12.154;2022-10-16T04:47:57;8.73;;;5.43;;
11443;SDS011;5778;47.856;12.154;2022-10-16T04:53:47;5.33;;;3.80;;
11443;SDS011;5778;47.856;12.154;2022-10-16T04:59:05;7.63;;;4.60;;
11443;SDS011;5778;47.856;12.154;2022-10-16T05:01:34;4.57;;;4.13;;
11443;SDS011;5778;47.856;12.154;2022-10-16T05:04:01;5.03;;;3.90;;
11443;SDS011;5778;47.856;12.154;2022-10-16T05:06:38;3.40;;;3.10;;
11443;SDS011;5778;47.856;12.154;2022-10-16T05:09:05;2.93;;;2.73;;
11443;SDS011;5778;47.856;12.154;2022-10-16T05:11:32;3.37;;;3.07;;
11443;SDS011;5778;47.856;12.154;2022-10-16T05:13:59;3.40;;;3.10;;
11443;SDS011;5778;47.856;12.154;2022-10-16T05:19:29;3.40;;;3.20;;
11443;SDS011;5778;47.856;12.154;2022-10-16T05:21:56;3.20;;;3.00;;
11443;SDS011;5778;47.856;12.154;2022-10-16T05:24:23;4.83;;;3.50;;
11443;SDS011;5778;47.856;12.154;2022-10-16T05:27:06;3.53;;;3.23;;
11443;SDS011;5778;47.856;12.154;2022-10-16T05:29:33;3.50;;;3.20;;
11443;SDS011;5778;47.856;12.154;2022-10-16T05:32:02;4.17;;;3.10;;
11443;SDS011;5778;47.856;12.154;2022-10-16T05:34:29;3.27;;;2.97;;
11443;SDS011;5778;47.856;12.154;2022-10-16T05:37:01;3.40;;;3.10;;
11443;SDS011;5778;47.856;12.154;2022-10-16T05:39:29;4.43;;;3.07;;
11443;SDS011;5778;47.856;12.154;2022-10-16T05:41:56;3.30;;;3.00;;
11443;SDS011;5778;47.856;12.154;2022-10-16T05:44:23;4.43;;;3.03;;
11443;SDS011;5778;47.856;12.154;2022-10-16T05:46:51;3.43;;;2.83;;
11443;SDS011;5778;47.856;12.154;2022-10-16T05:49:20;3.13;;;2.90;;
11443;SDS011;5778;47.856;12.154;2022-10-16T05:54:40;3.17;;;2.70;;
11443;SDS011;5778;47.856;12.154;2022-10-16T05:57:09;3.10;;;2.90;;
11443;SDS011;5778;47.856;12.154;2022-10-16T05:59:37;2.73;;;2.47;;
11443;SDS011;5778;47.856;12.154;2022-10-16T06:02:03;2.83;;;2.63;;
11443;SDS011;5778;47.856;12.154;2022-10-16T06:04:31;4.13;;;3.00;;
11443;SDS011;5778;47.856;12.154;2022-10-16T06:07:04;3.20;;;2.70;;
11443;SDS011;5778;47.856;12.154;2022-10-16T06:09:31;2.83;;;2.60;;
11443;SDS011;5778;47.856;12.154;2022-10-16T06:11:58;2.60;;;2.40;;
11443;SDS011;5778;47.856;12.154;2022-10-16T06:14:25;3.77;;;3.00;;
11443;SDS011;5778;47.856;12.154;2022-10-16T06:17:07;2.83;;;2.63;;
11443;SDS011;5778;47.856;12.154;2022-10-16T06:19:37;3.07;;;2.77;;
11443;SDS011;5778;47.856;12.154;2022-10-16T06:22:06;4.00;;;3.07;;
11443;SDS011;5778;47.856;12.154;2022-10-16T06:24:33;3.30;;;3.10;;
11443;SDS011;5778;47.856;12.154;2022-10-16T06:27:07;3.30;;;3.10;;
11443;SDS011;5778;47.856;12.154;2022-10-16T06:29:34;5.77;;;4.80;;
11443;SDS011;5778;47.856;12.154;2022-10-16T06:32:01;5.67;;;5.13;;
11443;SDS011;5778;47.856;12.154;2022-10-16T06:34:28;10.97;;;9.97;;
11443;SDS011;5778;47.856;12.154;2022-10-16T06:37:05;7.37;;;6.00;;
11443;SDS011;5778;47.856;12.154;2022-10-16T06:39:31;11.43;;;9.03;;
11443;SDS011;5778;47.856;12.154;2022-10-16T06:41:58;10.70;;;8.30;;
11443;SDS011;5778;47.856;12.154;2022-10-16T06:44:31;8.50;;;7.20;;
11443;SDS011;5778;47.856;12.154;2022-10-16T06:47:05;13.00;;;11.63;;
11443;SDS011;5778;47.856;12.154;2022-10-16T06:49:32;5.13;;;4.70;;
11443;SDS011;5778;47.856;12.154;2022-10-16T06:55:24;6.47;;;5.87;;
11443;SDS011;5778;47.856;12.154;2022-10-16T07:01:14;6.63;;;6.03;;
11443;SDS011;5778;47.856;12.154;2022-10-16T07:03:43;9.70;;;6.80;;
11443;SDS011;5778;47.856;12.154;2022-10-16T07:06:23;7.97;;;6.97;;
11443;SDS011;5778;47.856;12.154;2022-10-16T07:08:51;5.67;;;5.17;;
11443;SDS011;5778;47.856;12.154;2022-10-16T07:11:21;5.63;;;5.13;;
11443;SDS011;5778;47.856;12.154;2022-10-16T07:13:50;5.67;;;5.03;;
11443;SDS011;5778;47.856;12.154;2022-10-16T07:16:19;5.00;;;4.60;;
11443;SDS011;5778;47.856;12.154;2022-10-16T07:18:48;5.17;;;4.67;;
11443;SDS011;5778;47.856;12.154;2022-10-16T07:21:34;5.13;;;4.73;;
11443;SDS011;5778;47.856;12.154;2022-10-16T07:24:01;4.93;;;4.50;;
11443;SDS011;5778;47.856;12.154;2022-10-16T07:29:54;5.00;;;4.50;;
11443;SDS011;5778;47.856;12.154;2022-10-16T07:32:21;5.27;;;4.63;;
11443;SDS011;5778;47.856;12.154;2022-10-16T07:34:50;5.87;;;5.30;;
11443;SDS011;5778;47.856;12.154;2022-10-16T07:37:19;5.23;;;4.80;;
11443;SDS011;5778;47.856;12.154;2022-10-16T07:39:46;5.57;;;5.07;;
11443;SDS011;5778;47.856;12.154;2022-10-16T07:42:13;5.30;;;4.30;;
11443;SDS011;5778;47.856;12.154;2022-10-16T07:44:41;5.70;;;3.90;;
11443;SDS011;5778;47.856;12.154;2022-10-16T07:47:10;5.30;;;3.87;;
11443;SDS011;5778;47.856;12.154;2022-10-16T07:49:37;4.27;;;3.93;;
11443;SDS011;5778;47.856;12.154;2022-10-16T07:52:05;3.57;;;3.27;;
11443;SDS011;5778;47.856;12.154;2022-10-16T07:54:32;4.67;;;3.23;;
11443;SDS011;5778;47.856;12.154;2022-10-16T07:57:05;3.27;;;3.07;;
11443;SDS011;5778;47.856;12.154;2022-10-16T07:59:31;5.60;;;3.23;;
11443;SDS011;5778;47.856;12.154;2022-10-16T08:01:58;3.60;;;3.20;;
11443;SDS011;5778;47.856;12.154;2022-10-16T08:04:27;3.73;;;3.40;;
11443;SDS011;5778;47.856;12.154;2022-10-16T08:07:03;4.37;;;3.73;;
11443;SDS011;5778;47.856;12.154;2022-10-16T08:09:31;6.20;;;5.07;;
11443;SDS011;5778;47.856;12.154;2022-10-16T08:11:58;9.07;;;6.03;;
11443;SDS011;5778;47.856;12.154;2022-10-16T08:14:26;7.07;;;5.00;;
11443;SDS011;5778;47.856;12.154;2022-10-16T08:23:39;3.70;;;3.40;;
11443;SDS011;5778;47.856;12.154;2022-10-16T08:26:13;3.30;;;3.00;;
11443;SDS011;5778;47.856;12.154;2022-10-16T08:28:40;3.10;;;2.90;;
11443;SDS011;5778;47.856;12.154;2022-10-16T08:31:08;2.93;;;2.73;;
11443;SDS011;5778;47.856;12.154;2022-10-16T08:33:37;3.90;;;2.80;;
11443;SDS011;5778;47.856;12.154;2022-10-16T08:36:10;2.97;;;2.60;;
11443;SDS011;5778;47.856;12.154;2022-10-16T08:38:39;2.40;;;2.30;;
11443;SDS011;5778;47.856;12.154;2022-10-16T08:41:19;2.60;;;2.50;;
11443;SDS011;5778;47.856;12.154;2022-10-16T08:44:01;2.83;;;2.60;;
11443;SDS011;5778;47.856;12.154;2022-10-16T08:46:55;3.40;;;2.90;;
11443;SDS011;5778;47.856;12.154;2022-10-16T08:49:31;2.70;;;2.50;;
11443;SDS011;5778;47.856;12.154;2022-10-16T08:52:08;2.70;;;2.50;;
11443;SDS011;5778;47.856;12.154;2022-10-16T08:54:41;2.40;;;2.20;;
11443;SDS011;5778;47.856;12.154;2022-10-16T08:57:13;2.43;;;2.17;;
11443;SDS011;5778;47.856;12.154;2022-10-16T08:59:42;2.17;;;2.07;;
11443;SDS011;5778;47.856;12.154;2022-10-16T09:02:19;2.20;;;2.00;;
11443;SDS011;5778;47.856;12.154;2022-10-16T09:04:53;3.57;;;2.07;;
11443;SDS011;5778;47.856;12.154;2022-10-16T09:10:33;2.20;;;2.03;;
11443;SDS011;5778;47.856;12.154;2022-10-16T09:13:11;2.23;;;2.00;;
11443;SDS011;5778;47.856;12.154;2022-10-16T09:15:47;2.60;;;1.87;;
11443;SDS011;5778;47.856;12.154;2022-10-16T09:18:21;2.53;;;1.90;;
11443;SDS011;5778;47.856;12.154;2022-10-16T09:23:46;1.80;;;1.70;;
11443;SDS011;5778;47.856;12.154;2022-10-16T09:26:17;1.70;;;1.60;;
11443;SDS011;5778;47.856;12.154;2022-10-16T09:28:47;3.50;;;1.93;;
11443;SDS011;5778;47.856;12.154;2022-10-16T09:31:15;3.23;;;1.80;;
11443;SDS011;5778;47.856;12.154;2022-10-16T09:33:45;3.97;;;2.10;;
11443;SDS011;5778;47.856;12.154;2022-10-16T09:36:23;2.03;;;1.90;;
11443;SDS011;5778;47.856;12.154;2022-10-16T09:39:08;6.10;;;2.00;;
11443;SDS011;5778;47.856;12.154;2022-10-16T09:41:39;2.10;;;1.70;;
11443;SDS011;5778;47.856;12.154;2022-10-16T09:44:15;3.80;;;1.70;;
11443;SDS011;5778;47.856;12.154;2022-10-16T09:47:00;1.63;;;1.53;;
11443;SDS011;5778;47.856;12.154;2022-10-16T09:49:27;2.03;;;1.90;;
11443;SDS011;5778;47.856;12.154;2022-10-16T09:52:14;2.00;;;1.80;;
11443;SDS011;5778;47.856;12.154;2022-10-16T09:54:48;2.00;;;1.57;;
11443;SDS011;5778;47.856;12.154;2022-10-16T09:57:22;2.30;;;1.93;;
11443;SDS011;5778;47.856;12.154;2022-10-16T09:59:50;2.63;;;1.93;;
11443;SDS011;5778;47.856;12.154;2022-10-16T10:02:19;1.93;;;1.80;;
11443;SDS011;5778;47.856;12.154;2022-10-16T10:04:57;3.17;;;1.90;;
11443;SDS011;5778;47.856;12.154;2022-10-16T10:07:35;2.13;;;2.03;;
11443;SDS011;5778;47.856;12.154;2022-10-16T10:10:18;2.20;;;2.00;;
11443;SDS011;5778;47.856;12.154;2022-10-16T10:12:49;3.53;;;2.10;;
11443;SDS011;5778;47.856;12.154;2022-10-16T10:15:17;2.50;;;1.83;;
11443;SDS011;5778;47.856;12.154;2022-10-16T10:17:52;1.93;;;1.83;;
11443;SDS011;5778;47.856;12.154;2022-10-16T10:23:42;1.93;;;1.60;;
11443;SDS011;5778;47.856;12.154;2022-10-16T10:26:24;2.10;;;2.00;;
11443;SDS011;5778;47.856;12.154;2022-10-16T10:28:57;3.37;;;1.90;;
11443;SDS011;5778;47.856;12.154;2022-10-16T10:31:34;9.60;;;2.10;;
11443;SDS011;5778;47.856;12.154;2022-10-16T10:34:18;2.90;;;2.00;;
11443;SDS011;5778;47.856;12.154;2022-10-16T10:40:22;3.23;;;1.90;;
11443;SDS011;5778;47.856;12.154;2022-10-16T10:42:57;2.23;;;2.10;;
11443;SDS011;5778;47.856;12.154;2022-10-16T10:45:36;2.00;;;1.80;;
11443;SDS011;5778;47.856;12.154;2022-10-16T10:51:35;2.83;;;1.97;;
11443;SDS011;5778;47.856;12.154;2022-10-16T10:54:13;2.10;;;2.00;;
11443;SDS011;5778;47.856;12.154;2022-10-16T10:56:50;2.80;;;1.90;;
11443;SDS011;5778;47.856;12.154;2022-10-16T10:59:37;3.73;;;1.87;;
11443;SDS011;5778;47.856;12.154;2022-10-16T11:02:29;2.00;;;1.90;;
11443;SDS011;5778;47.856;12.154;2022-10-16T11:07:53;2.00;;;1.90;;
11443;SDS011;5778;47.856;12.154;2022-10-16T11:10:25;2.23;;;2.00;;
11443;SDS011;5778;47.856;12.154;2022-10-16T11:12:57;2.03;;;1.93;;
11443;SDS011;5778;47.856;12.154;2022-10-16T11:15:32;1.97;;;1.87;;
11443;SDS011;5778;47.856;12.154;2022-10-16T11:18:05;3.97;;;1.90;;
11443;SDS011;5778;47.856;12.154;2022-10-16T11:20:37;2.00;;;1.90;;
11443;SDS011;5778;47.856;12.154;2022-10-16T11:23:11;2.00;;;1.90;;
11443;SDS011;5778;47.856;12.154;2022-10-16T11:25:50;3.33;;;1.80;;
11443;SDS011;5778;47.856;12.154;2022-10-16T11:28:19;2.80;;;1.97;;
11443;SDS011;5778;47.856;12.154;2022-10-16T11:30:51;1.90;;;1.80;;
11443;SDS011;5778;47.856;12.154;2022-10-16T11:33:25;4.33;;;1.90;;
11443;SDS011;5778;47.856;12.154;2022-10-16T11:36:01;2.93;;;1.70;;
11443;SDS011;5778;47.856;12.154;2022-10-16T11:38:34;1.80;;;1.70;;
11443;SDS011;5778;47.856;12.154;2022-10-16T11:41:10;3.00;;;1.80;;
11443;SDS011;5778;47.856;12.154;2022-10-16T11:43:43;1.93;;;1.70;;
11443;SDS011;5778;47.856;12.154;2022-10-16T11:46:21;2.00;;;1.80;;
11443;SDS011;5778;47.856;12.154;2022-10-16T11:48:55;1.70;;;1.60;;
11443;SDS011;5778;47.856;12.154;2022-10-16T11:51:36;2.00;;;1.90;;
11443;SDS011;5778;47.856;12.154;2022-10-16T11:54:08;3.43;;;2.03;;
11443;SDS011;5778;47.856;12.154;2022-10-16T12:00:05;2.30;;;2.10;;
11443;SDS011;5778;47.856;12.154;2022-10-16T12:02:44;1.80;;;1.70;;
11443;SDS011;5778;47.856;12.154;2022-10-16T12:05:24;3.77;;;1.90;;
11443;SDS011;5778;47.856;12.154;2022-10-16T12:08:06;1.80;;;1.70;;
11443;SDS011;5778;47.856;12.154;2022-10-16T12:10:37;3.37;;;1.93;;
11443;SDS011;5778;47.856;12.154;2022-10-16T12:13:25;1.73;;;1.63;;
11443;SDS011;5778;47.856;12.154;2022-10-16T12:19:03;1.93;;;1.80;;
11443;SDS011;5778;47.856;12.154;2022-10-16T12:21:44;2.10;;;1.70;;
11443;SDS011;5778;47.856;12.154;2022-10-16T12:24:20;1.53;;;1.43;;
11443;SDS011;5778;47.856;12.154;2022-10-16T12:26:50;3.30;;;1.77;;
11443;SDS011;5778;47.856;12.154;2022-10-16T12:29:22;2.53;;;1.90;;
11443;SDS011;5778;47.856;12.154;2022-10-16T12:31:55;2.00;;;1.73;;
11443;SDS011;5778;47.856;12.154;2022-10-16T12:34:23;1.80;;;1.60;;
11443;SDS011;5778;47.856;12.154;2022-10-16T12:37:07;1.67;;;1.57;;
11443;SDS011;5778;47.856;12.154;2022-10-16T12:39:36;1.80;;;1.37;;
11443;SDS011;5778;47.856;12.154;2022-10-16T12:42:04;1.30;;;1.30;;
11443;SDS011;5778;47.856;12.154;2022-10-16T12:44:45;1.77;;;1.00;;
11443;SDS011;5778;47.856;12.154;2022-10-16T12:47:19;1.50;;;1.00;;
11443;SDS011;5778;47.856;12.154;2022-10-16T12:49:48;1.10;;;0.98;;
11443;SDS011;5778;47.856;12.154;2022-10-16T12:52:25;1.67;;;0.80;;
11443;SDS011;5778;47.856;12.154;2022-10-16T12:54:55;1.42;;;0.90;;
11443;SDS011;5778;47.856;12.154;2022-10-16T12:57:34;0.70;;;0.63;;
11443;SDS011;5778;47.856;12.154;2022-10-16T13:00:13;0.70;;;0.70;;
11443;SDS011;5778;47.856;12.154;2022-10-16T13:05:58;0.57;;;0.55;;
11443;SDS011;5778;47.856;12.154;2022-10-16T13:08:43;1.37;;;0.60;;
11443;SDS011;5778;47.856;12.154;2022-10-16T13:11:24;1.10;;;0.70;;
11443;SDS011;5778;47.856;12.154;2022-10-16T13:14:19;1.23;;;0.80;;
11443;SDS011;5778;47.856;12.154;2022-10-16T13:17:00;0.60;;;0.60;;
11443;SDS011;5778;47.856;12.154;2022-10-16T13:19:35;1.00;;;0.60;;
11443;SDS011;5778;47.856;12.154;2022-10-16T13:22:24;1.30;;;0.60;;
11443;SDS011;5778;47.856;12.154;2022-10-16T13:25:05;1.55;;;0.70;;
11443;SDS011;5778;47.856;12.154;2022-10-16T13:27:51;0.70;;;0.70;;
11443;SDS011;5778;47.856;12.154;2022-10-16T13:30:22;0.70;;;0.70;;
11443;SDS011;5778;47.856;12.154;2022-10-16T13:32:54;0.60;;;0.60;;
11443;SDS011;5778;47.856;12.154;2022-10-16T13:35:27;0.95;;;0.50;;
11443;SDS011;5778;47.856;12.154;2022-10-16T13:40:50;1.15;;;0.60;;
11443;SDS011;5778;47.856;12.154;2022-10-16T13:43:19;0.50;;;0.50;;
11443;SDS011;5778;47.856;12.154;2022-10-16T13:48:57;1.00;;;0.60;;
11443;SDS011;5778;47.856;12.154;2022-10-16T13:51:37;0.60;;;0.60;;
11443;SDS011;5778;47.856;12.154;2022-10-16T13:54:07;0.70;;;0.70;;
11443;SDS011;5778;47.856;12.154;2022-10-16T13:56:38;0.80;;;0.80;;
11443;SDS011;5778;47.856;12.154;2022-10-16T13:59:20;0.73;;;0.73;;
11443;SDS011;5778;47.856;12.154;2022-10-16T14:01:50;0.80;;;0.80;;
11443;SDS011;5778;47.856;12.154;2022-10-16T14:04:20;0.65;;;0.65;;
11443;SDS011;5778;47.856;12.154;2022-10-16T14:06:49;0.80;;;0.80;;
11443;SDS011;5778;47.856;12.154;2022-10-16T14:09:21;0.57;;;0.57;;
11443;SDS011;5778;47.856;12.154;2022-10-16T14:11:52;0.40;;;0.40;;
11443;SDS011;5778;47.856;12.154;2022-10-16T14:14:22;0.85;;;0.80;;
11443;SDS011;5778;47.856;12.154;2022-10-16T14:16:51;1.25;;;0.88;;
11443;SDS011;5778;47.856;12.154;2022-10-16T14:19:19;0.75;;;0.73;;
11443;SDS011;5778;47.856;12.154;2022-10-16T14:22:20;1.63;;;0.80;;
11443;SDS011;5778;47.856;12.154;2022-10-16T14:24:54;0.70;;;0.50;;
11443;SDS011;5778;47.856;12.154;2022-10-16T14:27:29;0.70;;;0.70;;
11443;SDS011;5778;47.856;12.154;2022-10-16T14:30:05;0.60;;;0.60;;
11443;SDS011;5778;47.856;12.154;2022-10-16T14:32:40;0.50;;;0.50;;
11443;SDS011;5778;47.856;12.154;2022-10-16T14:35:11;2.85;;;0.50;;
11443;SDS011;5778;47.856;12.154;2022-10-16T14:37:51;0.50;;;0.50;;
11443;SDS011;5778;47.856;12.154;2022-10-16T14:40:20;1.95;;;0.60;;
11443;SDS011;5778;47.856;12.154;2022-10-16T14:42:51;0.85;;;0.47;;
11443;SDS011;5778;47.856;12.154;2022-10-16T14:45:19;0.60;;;0.60;;
11443;SDS011;5778;47.856;12.154;2022-10-16T14:47:48;0.60;;;0.60;;
11443;SDS011;5778;47.856;12.154;2022-10-16T14:53:16;0.65;;;0.65;;
11443;SDS011;5778;47.856;12.154;2022-10-16T14:55:43;0.70;;;0.70;;
11443;SDS011;5778;47.856;12.154;2022-10-16T14:58:13;0.57;;;0.50;;
11443;SDS011;5778;47.856;12.154;2022-10-16T15:00:42;2.15;;;0.77;;
11443;SDS011;5778;47.856;12.154;2022-10-16T15:03:09;3.08;;;0.70;;
11443;SDS011;5778;47.856;12.154;2022-10-16T15:05:36;1.38;;;0.47;;
11443;SDS011;5778;47.856;12.154;2022-10-16T15:08:03;0.50;;;0.50;;
11443;SDS011;5778;47.856;12.154;2022-10-16T15:10:31;1.77;;;0.70;;
11443;SDS011;5778;47.856;12.154;2022-10-16T15:13:12;0.50;;;0.50;;
11443;SDS011;5778;47.856;12.154;2022-10-16T15:15:41;0.70;;;0.60;;
11443;SDS011;5778;47.856;12.154;2022-10-16T15:18:10;1.05;;;0.60;;
11443;SDS011;5778;47.856;12.154;2022-10-16T15:23:29;0.60;;;0.60;;
11443;SDS011;5778;47.856;12.154;2022-10-16T15:26:02;0.68;;;0.50;;
11443;SDS011;5778;47.856;12.154;2022-10-16T15:28:31;3.65;;;0.70;;
11443;SDS011;5778;47.856;12.154;2022-10-16T15:31:00;0.50;;;0.50;;
11443;SDS011;5778;47.856;12.154;2022-10-16T15:33:27;0.60;;;0.57;;
11443;SDS011;5778;47.856;12.154;2022-10-16T15:35:58;0.60;;;0.60;;
11443;SDS011;5778;47.856;12.154;2022-10-16T15:38:25;2.80;;;0.60;;
11443;SDS011;5778;47.856;12.154;2022-10-16T15:40:56;1.47;;;0.67;;
11443;SDS011;5778;47.856;12.154;2022-10-16T15:43:23;2.53;;;1.13;;
11443;SDS011;5778;47.856;12.154;2022-10-16T15:45:57;1.10;;;0.77;;
11443;SDS011;5778;47.856;12.154;2022-10-16T15:48:26;1.37;;;1.07;;
11443;SDS011;5778;47.856;12.154;2022-10-16T15:50:54;1.47;;;1.23;;
11443;SDS011;5778;47.856;12.154;2022-10-16T15:53:21;3.77;;;1.60;;
11443;SDS011;5778;47.856;12.154;2022-10-16T15:55:48;3.30;;;1.63;;
11443;SDS011;5778;47.856;12.154;2022-10-16T15:58:15;2.43;;;1.73;;
11443;SDS011;5778;47.856;12.154;2022-10-16T16:00:43;2.10;;;1.90;;
11443;SDS011;5778;47.856;12.154;2022-10-16T16:03:11;1.73;;;1.30;;
11443;SDS011;5778;47.856;12.154;2022-10-16T16:05:38;1.40;;;1.27;;
11443;SDS011;5778;47.856;12.154;2022-10-16T16:08:05;1.80;;;1.40;;
11443;SDS011;5778;47.856;12.154;2022-10-16T16:10:32;1.60;;;1.50;;
11443;SDS011;5778;47.856;12.154;2022-10-16T16:12:59;2.10;;;1.40;;
11443;SDS011;5778;47.856;12.154;2022-10-16T16:15:26;2.17;;;1.90;;
11443;SDS011;5778;47.856;12.154;2022-10-16T16:17:53;2.80;;;2.03;;
11443;SDS011;5778;47.856;12.154;2022-10-16T16:20:22;2.13;;;1.80;;
11443;SDS011;5778;47.856;12.154;2022-10-16T16:22:48;1.30;;;1.20;;
11443;SDS011;5778;47.856;12.154;2022-10-16T16:25:15;3.27;;;1.50;;
11443;SDS011;5778;47.856;12.154;2022-10-16T16:27:43;2.27;;;1.50;;
11443;SDS011;5778;47.856;12.154;2022-10-16T16:30:11;3.57;;;1.60;;
11443;SDS011;5778;47.856;12.154;2022-10-16T16:32:38;3.13;;;1.90;;
11443;SDS011;5778;47.856;12.154;2022-10-16T16:35:06;3.57;;;1.70;;
11443;SDS011;5778;47.856;12.154;2022-10-16T16:37:35;5.07;;;1.90;;
11443;SDS011;5778;47.856;12.154;2022-10-16T16:40:02;4.03;;;3.30;;